Detroit Metropolitan Wayne County Airport
KDTW : now visible

Airfield :











YOU CAN JOIN US ON...

 
LOGIN :

Register | Disclaimer

   EN    FR    IT 

 









Legend :    VFR   Marginal VFR   IFR   Intensive IFR   Very Intensive IFR
Visi :
Ceiling :
>= 8 km
>= 3000ft
5 to 8 km
1000 to 3000 ft
1500m to 5 km
500 to 1000 ft
800 to 1500m
200 to 500 ft
< 800m
< 200 ft
Symbols :   Thunderstorms  Fog  Heavy snow  Heavy precipitations  Wind > 20 kt






- Airport Elevation : 645 ft
- IATA code : DTW


KDTW - Detroit Metropolitan Wayne County

CURRENT METAR :
  • 161253Z 03003KT 9SM OVC070 M02/M07 A3018 RMK AO2 SLP228 T10171067

EXPIRED METARs :
  • 161153Z 02004KT 8SM OVC065 M02/M07 A3017 RMK AO2 SLP225 T10171067 11017 21022 51006
  • 161053Z 36004KT 8SM OVC060 M02/M07 A3017 RMK AO2 SLP223 T10171067

TAF KDTW
Valid from the 16 at 12:00 until the 17 at 18:00 UTC


161120Z 1612/1718 VRB03KT P6SM FEW045 BKN050 OVC060
FM162000 03004KT P6SM SCT045 BKN150
FM170000 02005KT P6SM OVC120
FM170800 34005KT P6SM OVC070



MET'MAP, your aeronautical weather chart ! - Copyright ORBIFLY December 2007 - Disclaimer

ORBIFLY MET'MAP TEAM :

Programming & Development : Alexandra Zaïnal
Concept & original design : Baudouin d'Aumeries
Assistance for programming : Marc-Olivier Méhu
Technical & hardware support : Manuel Goepfert

Contact : metmap@orbifly.com




SOURCES & CREDITS :

   NOAA       Earth
Advisory